sensor_id;sensor_type;location;lat;lon;timestamp;temperature;humidity
32728;DHT22;55292;51.844;19.246;2023-07-13T00:03:56;16.70;99.90
32728;DHT22;55292;51.844;19.246;2023-07-13T00:09:20;16.70;99.90
32728;DHT22;55292;51.844;19.246;2023-07-13T00:14:55;16.70;99.90
32728;DHT22;55292;51.844;19.246;2023-07-13T00:20:05;16.70;99.90
32728;DHT22;55292;51.844;19.246;2023-07-13T00:25:33;16.70;99.90
32728;DHT22;55292;51.844;19.246;2023-07-13T00:30:47;16.70;99.90
32728;DHT22;55292;51.844;19.246;2023-07-13T00:35:54;16.60;99.90
32728;DHT22;55292;51.844;19.246;2023-07-13T00:41:21;16.40;99.90
32728;DHT22;55292;51.844;19.246;2023-07-13T00:46:47;16.40;99.90
32728;DHT22;55292;51.844;19.246;2023-07-13T00:52:22;16.30;99.90
32728;DHT22;55292;51.844;19.246;2023-07-13T00:57:35;16.30;99.90
32728;DHT22;55292;51.844;19.246;2023-07-13T01:03:22;16.30;99.90
32728;DHT22;55292;51.844;19.246;2023-07-13T01:08:42;16.30;99.90
32728;DHT22;55292;51.844;19.246;2023-07-13T01:14:12;16.40;99.90
32728;DHT22;55292;51.844;19.246;2023-07-13T01:19:39;16.40;99.90
32728;DHT22;55292;51.844;19.246;2023-07-13T01:25:12;16.50;99.90
32728;DHT22;55292;51.844;19.246;2023-07-13T01:30:52;16.40;99.90
32728;DHT22;55292;51.844;19.246;2023-07-13T01:37:15;16.40;99.90
32728;DHT22;55292;51.844;19.246;2023-07-13T01:42:53;16.30;99.90
32728;DHT22;55292;51.844;19.246;2023-07-13T01:48:05;16.20;99.90
32728;DHT22;55292;51.844;19.246;2023-07-13T01:53:38;16.00;99.90
32728;DHT22;55292;51.844;19.246;2023-07-13T01:59:03;16.00;99.90
32728;DHT22;55292;51.844;19.246;2023-07-13T02:04:38;15.90;99.90
32728;DHT22;55292;51.844;19.246;2023-07-13T02:09:52;16.00;99.90
32728;DHT22;55292;51.844;19.246;2023-07-13T02:16:03;16.10;99.90
32728;DHT22;55292;51.844;19.246;2023-07-13T02:21:41;16.10;99.90
32728;DHT22;55292;51.844;19.246;2023-07-13T02:27:48;15.80;99.90
32728;DHT22;55292;51.844;19.246;2023-07-13T02:33:34;15.70;99.90
32728;DHT22;55292;51.844;19.246;2023-07-13T02:39:02;15.70;99.90
32728;DHT22;55292;51.844;19.246;2023-07-13T02:45:10;15.80;99.90
32728;DHT22;55292;51.844;19.246;2023-07-13T02:51:07;15.80;99.90
32728;DHT22;55292;51.844;19.246;2023-07-13T02:56:25;15.80;99.90
32728;DHT22;55292;51.844;19.246;2023-07-13T03:02:02;16.00;99.90
32728;DHT22;55292;51.844;19.246;2023-07-13T03:07:38;16.00;99.90
32728;DHT22;55292;51.844;19.246;2023-07-13T03:13:09;16.10;99.90
32728;DHT22;55292;51.844;19.246;2023-07-13T03:18:32;16.40;99.90
32728;DHT22;55292;51.844;19.246;2023-07-13T03:24:00;17.10;99.90
32728;DHT22;55292;51.844;19.246;2023-07-13T03:29:54;18.00;99.90
32728;DHT22;55292;51.844;19.246;2023-07-13T03:35:19;19.90;99.90
32728;DHT22;55292;51.844;19.246;2023-07-13T03:40:29;20.40;99.90
32728;DHT22;55292;51.844;19.246;2023-07-13T03:45:32;20.70;99.90
32728;DHT22;55292;51.844;19.246;2023-07-13T03:50:35;19.50;99.90
32728;DHT22;55292;51.844;19.246;2023-07-13T03:55:39;18.80;99.90
32728;DHT22;55292;51.844;19.246;2023-07-13T04:00:42;18.70;99.90
32728;DHT22;55292;51.844;19.246;2023-07-13T04:05:46;18.80;99.90
32728;DHT22;55292;51.844;19.246;2023-07-13T04:10:53;19.20;99.90
32728;DHT22;55292;51.844;19.246;2023-07-13T04:15:57;22.10;99.90
32728;DHT22;55292;51.844;19.246;2023-07-13T04:21:00;23.60;99.90
32728;DHT22;55292;51.844;19.246;2023-07-13T04:26:04;23.30;99.90
32728;DHT22;55292;51.844;19.246;2023-07-13T04:31:18;23.10;99.90
32728;DHT22;55292;51.844;19.246;2023-07-13T04:36:21;24.60;99.90
32728;DHT22;55292;51.844;19.246;2023-07-13T04:41:24;24.70;99.90
32728;DHT22;55292;51.844;19.246;2023-07-13T04:46:27;23.70;99.90
32728;DHT22;55292;51.844;19.246;2023-07-13T04:51:30;23.60;99.90
32728;DHT22;55292;51.844;19.246;2023-07-13T04:56:33;24.20;99.90
32728;DHT22;55292;51.844;19.246;2023-07-13T05:01:36;24.50;99.90
32728;DHT22;55292;51.844;19.246;2023-07-13T05:06:38;24.90;99.90
32728;DHT22;55292;51.844;19.246;2023-07-13T05:11:41;24.80;99.90
32728;DHT22;55292;51.844;19.246;2023-07-13T05:16:44;25.30;99.90
32728;DHT22;55292;51.844;19.246;2023-07-13T05:21:47;26.50;99.90
32728;DHT22;55292;51.844;19.246;2023-07-13T05:26:50;28.00;99.90
32728;DHT22;55292;51.844;19.246;2023-07-13T05:31:52;30.20;99.90
32728;DHT22;55292;51.844;19.246;2023-07-13T05:36:55;31.40;97.60
32728;DHT22;55292;51.844;19.246;2023-07-13T05:41:58;31.20;91.20
32728;DHT22;55292;51.844;19.246;2023-07-13T05:47:01;32.00;90.70
32728;DHT22;55292;51.844;19.246;2023-07-13T05:52:04;33.00;80.90
32728;DHT22;55292;51.844;19.246;2023-07-13T05:57:07;32.70;78.30
32728;DHT22;55292;51.844;19.246;2023-07-13T06:02:10;32.80;75.40
32728;DHT22;55292;51.844;19.246;2023-07-13T06:07:14;33.70;71.80
32728;DHT22;55292;51.844;19.246;2023-07-13T06:12:17;33.00;72.50
32728;DHT22;55292;51.844;19.246;2023-07-13T06:17:19;31.30;75.60
32728;DHT22;55292;51.844;19.246;2023-07-13T06:22:23;28.80;85.40
32728;DHT22;55292;51.844;19.246;2023-07-13T06:27:26;27.80;88.30
32728;DHT22;55292;51.844;19.246;2023-07-13T06:32:32;26.90;90.80
32728;DHT22;55292;51.844;19.246;2023-07-13T06:37:35;26.80;91.30
32728;DHT22;55292;51.844;19.246;2023-07-13T06:42:38;26.20;93.30
32728;DHT22;55292;51.844;19.246;2023-07-13T06:47:42;26.30;95.50
32728;DHT22;55292;51.844;19.246;2023-07-13T06:52:45;26.60;95.80
32728;DHT22;55292;51.844;19.246;2023-07-13T06:57:48;27.10;95.80
32728;DHT22;55292;51.844;19.246;2023-07-13T07:02:51;27.10;96.30
32728;DHT22;55292;51.844;19.246;2023-07-13T07:07:55;27.10;96.40
32728;DHT22;55292;51.844;19.246;2023-07-13T07:12:58;27.30;90.70
32728;DHT22;55292;51.844;19.246;2023-07-13T07:18:01;27.20;90.80
32728;DHT22;55292;51.844;19.246;2023-07-13T07:23:04;26.70;91.30
32728;DHT22;55292;51.844;19.246;2023-07-13T07:28:08;26.40;91.70
32728;DHT22;55292;51.844;19.246;2023-07-13T07:33:14;26.40;92.80
32728;DHT22;55292;51.844;19.246;2023-07-13T07:38:18;26.40;91.20
32728;DHT22;55292;51.844;19.246;2023-07-13T07:43:24;26.20;86.50
32728;DHT22;55292;51.844;19.246;2023-07-13T07:48:27;25.70;84.00
32728;DHT22;55292;51.844;19.246;2023-07-13T07:53:30;25.10;85.60
32728;DHT22;55292;51.844;19.246;2023-07-13T07:58:35;24.70;89.00
32728;DHT22;55292;51.844;19.246;2023-07-13T08:03:41;24.50;96.70
32728;DHT22;55292;51.844;19.246;2023-07-13T08:08:47;24.10;99.90
32728;DHT22;55292;51.844;19.246;2023-07-13T08:13:50;23.50;99.90
32728;DHT22;55292;51.844;19.246;2023-07-13T08:18:56;22.80;99.90
32728;DHT22;55292;51.844;19.246;2023-07-13T08:23:59;22.20;99.90
32728;DHT22;55292;51.844;19.246;2023-07-13T08:29:02;22.00;99.90
32728;DHT22;55292;51.844;19.246;2023-07-13T08:34:05;21.60;99.90
32728;DHT22;55292;51.844;19.246;2023-07-13T08:39:08;21.30;99.90
32728;DHT22;55292;51.844;19.246;2023-07-13T08:44:31;20.90;99.90
32728;DHT22;55292;51.844;19.246;2023-07-13T08:49:36;20.70;99.90
32728;DHT22;55292;51.844;19.246;2023-07-13T08:54:45;20.70;99.90
32728;DHT22;55292;51.844;19.246;2023-07-13T08:59:51;20.90;99.90
32728;DHT22;55292;51.844;19.246;2023-07-13T09:05:20;21.20;99.90
32728;DHT22;55292;51.844;19.246;2023-07-13T09:10:27;21.10;99.90
32728;DHT22;55292;51.844;19.246;2023-07-13T09:15:40;21.30;99.90
32728;DHT22;55292;51.844;19.246;2023-07-13T09:20:58;21.50;99.90
32728;DHT22;55292;51.844;19.246;2023-07-13T09:26:09;21.40;99.90
32728;DHT22;55292;51.844;19.246;2023-07-13T09:36:28;22.10;99.90
32728;DHT22;55292;51.844;19.246;2023-07-13T09:46:54;23.00;99.90
32728;DHT22;55292;51.844;19.246;2023-07-13T09:52:05;23.90;99.90
32728;DHT22;55292;51.844;19.246;2023-07-13T09:57:16;24.10;99.90
32728;DHT22;55292;51.844;19.246;2023-07-13T10:02:27;24.20;99.90
32728;DHT22;55292;51.844;19.246;2023-07-13T10:07:35;24.30;99.90
32728;DHT22;55292;51.844;19.246;2023-07-13T10:12:40;24.00;99.90
32728;DHT22;55292;51.844;19.246;2023-07-13T10:17:43;23.60;99.90
32728;DHT22;55292;51.844;19.246;2023-07-13T10:28:30;23.80;99.90
32728;DHT22;55292;51.844;19.246;2023-07-13T10:33:34;23.50;99.90
32728;DHT22;55292;51.844;19.246;2023-07-13T10:38:37;23.30;99.90
32728;DHT22;55292;51.844;19.246;2023-07-13T10:43:43;23.20;99.90
32728;DHT22;55292;51.844;19.246;2023-07-13T10:48:51;23.30;99.90
32728;DHT22;55292;51.844;19.246;2023-07-13T10:54:14;21.30;99.90
32728;DHT22;55292;51.844;19.246;2023-07-13T10:59:26;23.40;99.90
32728;DHT22;55292;51.844;19.246;2023-07-13T11:04:41;23.70;99.90
32728;DHT22;55292;51.844;19.246;2023-07-13T11:09:52;24.00;99.90
32728;DHT22;55292;51.844;19.246;2023-07-13T11:30:35;25.20;99.90
32728;DHT22;55292;51.844;19.246;2023-07-13T11:36:00;25.20;99.90
32728;DHT22;55292;51.844;19.246;2023-07-13T11:41:22;24.90;99.90
32728;DHT22;55292;51.844;19.246;2023-07-13T11:46:27;24.90;99.90
32728;DHT22;55292;51.844;19.246;2023-07-13T11:51:33;25.00;99.90
32728;DHT22;55292;51.844;19.246;2023-07-13T11:56:38;24.50;99.90
32728;DHT22;55292;51.844;19.246;2023-07-13T12:01:49;24.70;99.90
32728;DHT22;55292;51.844;19.246;2023-07-13T12:07:04;26.70;99.90
32728;DHT22;55292;51.844;19.246;2023-07-13T12:12:17;24.50;99.90
32728;DHT22;55292;51.844;19.246;2023-07-13T12:17:23;25.80;99.90
32728;DHT22;55292;51.844;19.246;2023-07-13T12:22:27;24.50;99.90
32728;DHT22;55292;51.844;19.246;2023-07-13T12:27:30;24.80;99.90
32728;DHT22;55292;51.844;19.246;2023-07-13T12:32:34;25.20;99.90
32728;DHT22;55292;51.844;19.246;2023-07-13T12:37:42;25.40;99.90
32728;DHT22;55292;51.844;19.246;2023-07-13T12:42:47;25.50;99.90
32728;DHT22;55292;51.844;19.246;2023-07-13T12:48:05;25.70;99.90
32728;DHT22;55292;51.844;19.246;2023-07-13T12:53:19;26.10;99.90
32728;DHT22;55292;51.844;19.246;2023-07-13T12:58:29;26.20;99.90
32728;DHT22;55292;51.844;19.246;2023-07-13T13:03:38;26.50;99.90
32728;DHT22;55292;51.844;19.246;2023-07-13T13:08:47;26.20;99.90
32728;DHT22;55292;51.844;19.246;2023-07-13T13:13:53;26.80;99.90
32728;DHT22;55292;51.844;19.246;2023-07-13T13:18:57;27.30;99.90
32728;DHT22;55292;51.844;19.246;2023-07-13T13:24:01;27.70;99.90
32728;DHT22;55292;51.844;19.246;2023-07-13T13:29:17;27.60;99.90
32728;DHT22;55292;51.844;19.246;2023-07-13T13:34:21;27.60;99.30
32728;DHT22;55292;51.844;19.246;2023-07-13T13:39:34;27.10;98.70
32728;DHT22;55292;51.844;19.246;2023-07-13T13:44:38;26.80;99.90
32728;DHT22;55292;51.844;19.246;2023-07-13T13:49:45;26.10;97.70
32728;DHT22;55292;51.844;19.246;2023-07-13T13:54:51;25.80;99.90
32728;DHT22;55292;51.844;19.246;2023-07-13T13:59:58;25.90;99.90
32728;DHT22;55292;51.844;19.246;2023-07-13T14:05:03;25.80;99.90
32728;DHT22;55292;51.844;19.246;2023-07-13T14:10:18;26.30;95.30
32728;DHT22;55292;51.844;19.246;2023-07-13T14:20:27;26.40;92.00
32728;DHT22;55292;51.844;19.246;2023-07-13T14:25:30;26.80;92.20
32728;DHT22;55292;51.844;19.246;2023-07-13T14:30:33;27.00;90.40
32728;DHT22;55292;51.844;19.246;2023-07-13T14:35:36;27.40;90.30
32728;DHT22;55292;51.844;19.246;2023-07-13T14:40:40;27.10;89.00
32728;DHT22;55292;51.844;19.246;2023-07-13T14:45:47;26.70;90.30
32728;DHT22;55292;51.844;19.246;2023-07-13T14:50:54;27.00;90.00
32728;DHT22;55292;51.844;19.246;2023-07-13T14:55:57;27.60;88.30
32728;DHT22;55292;51.844;19.246;2023-07-13T15:01:13;27.70;87.60
32728;DHT22;55292;51.844;19.246;2023-07-13T15:06:17;27.60;85.30
32728;DHT22;55292;51.844;19.246;2023-07-13T15:11:22;27.50;87.00
32728;DHT22;55292;51.844;19.246;2023-07-13T15:16:25;27.50;87.20
32728;DHT22;55292;51.844;19.246;2023-07-13T15:21:28;27.90;85.80
32728;DHT22;55292;51.844;19.246;2023-07-13T15:26:37;27.70;84.50
32728;DHT22;55292;51.844;19.246;2023-07-13T15:31:42;26.90;84.20
32728;DHT22;55292;51.844;19.246;2023-07-13T15:36:47;26.40;86.80
32728;DHT22;55292;51.844;19.246;2023-07-13T15:41:51;26.20;87.60
32728;DHT22;55292;51.844;19.246;2023-07-13T15:46:58;26.10;87.80
32728;DHT22;55292;51.844;19.246;2023-07-13T15:52:04;26.10;88.50
32728;DHT22;55292;51.844;19.246;2023-07-13T15:57:09;26.80;90.40
32728;DHT22;55292;51.844;19.246;2023-07-13T16:02:17;27.60;85.10
32728;DHT22;55292;51.844;19.246;2023-07-13T16:07:21;27.10;82.00
32728;DHT22;55292;51.844;19.246;2023-07-13T16:12:26;27.10;83.40
32728;DHT22;55292;51.844;19.246;2023-07-13T16:17:29;27.00;82.90
32728;DHT22;55292;51.844;19.246;2023-07-13T16:22:33;25.90;83.60
32728;DHT22;55292;51.844;19.246;2023-07-13T16:27:37;25.40;84.40
32728;DHT22;55292;51.844;19.246;2023-07-13T16:32:41;25.40;83.90
32728;DHT22;55292;51.844;19.246;2023-07-13T16:37:45;25.40;84.70
32728;DHT22;55292;51.844;19.246;2023-07-13T16:43:06;25.10;85.50
32728;DHT22;55292;51.844;19.246;2023-07-13T16:48:15;24.80;88.20
32728;DHT22;55292;51.844;19.246;2023-07-13T16:53:29;24.80;87.20
32728;DHT22;55292;51.844;19.246;2023-07-13T16:58:35;24.40;88.70
32728;DHT22;55292;51.844;19.246;2023-07-13T17:03:38;23.60;88.00
32728;DHT22;55292;51.844;19.246;2023-07-13T17:08:41;23.60;89.50
32728;DHT22;55292;51.844;19.246;2023-07-13T17:13:44;23.80;90.00
32728;DHT22;55292;51.844;19.246;2023-07-13T17:18:49;23.70;90.60
32728;DHT22;55292;51.844;19.246;2023-07-13T17:23:52;23.90;90.90
32728;DHT22;55292;51.844;19.246;2023-07-13T17:28:55;23.60;90.50
32728;DHT22;55292;51.844;19.246;2023-07-13T17:33:58;23.30;91.60
32728;DHT22;55292;51.844;19.246;2023-07-13T17:39:01;22.90;92.20
32728;DHT22;55292;51.844;19.246;2023-07-13T17:44:15;22.60;93.20
32728;DHT22;55292;51.844;19.246;2023-07-13T17:49:23;22.70;92.60
32728;DHT22;55292;51.844;19.246;2023-07-13T17:54:35;22.40;92.30
32728;DHT22;55292;51.844;19.246;2023-07-13T17:59:38;22.60;92.50
32728;DHT22;55292;51.844;19.246;2023-07-13T18:04:41;22.40;92.10
32728;DHT22;55292;51.844;19.246;2023-07-13T18:09:44;22.60;92.10
32728;DHT22;55292;51.844;19.246;2023-07-13T18:14:50;22.50;93.20
32728;DHT22;55292;51.844;19.246;2023-07-13T18:19:57;21.90;94.40
32728;DHT22;55292;51.844;19.246;2023-07-13T18:25:14;21.20;96.10
32728;DHT22;55292;51.844;19.246;2023-07-13T18:30:19;20.20;99.90
32728;DHT22;55292;51.844;19.246;2023-07-13T18:35:32;19.60;99.90
32728;DHT22;55292;51.844;19.246;2023-07-13T18:40:36;18.90;99.90
32728;DHT22;55292;51.844;19.246;2023-07-13T18:45:47;18.00;99.90
32728;DHT22;55292;51.844;19.246;2023-07-13T18:50:53;17.90;99.90
32728;DHT22;55292;51.844;19.246;2023-07-13T18:55:58;17.40;99.90
32728;DHT22;55292;51.844;19.246;2023-07-13T19:01:05;16.90;99.90
32728;DHT22;55292;51.844;19.246;2023-07-13T19:06:11;16.90;99.90
32728;DHT22;55292;51.844;19.246;2023-07-13T19:11:20;16.60;99.90
32728;DHT22;55292;51.844;19.246;2023-07-13T19:16:31;16.30;99.90
32728;DHT22;55292;51.844;19.246;2023-07-13T19:21:54;16.20;99.90
32728;DHT22;55292;51.844;19.246;2023-07-13T19:27:09;16.10;99.90
32728;DHT22;55292;51.844;19.246;2023-07-13T19:32:18;15.90;99.90
32728;DHT22;55292;51.844;19.246;2023-07-13T19:37:39;15.90;99.90
32728;DHT22;55292;51.844;19.246;2023-07-13T19:43:15;15.70;99.90
32728;DHT22;55292;51.844;19.246;2023-07-13T19:48:41;15.60;99.90
32728;DHT22;55292;51.844;19.246;2023-07-13T19:54:21;15.40;99.90
32728;DHT22;55292;51.844;19.246;2023-07-13T19:59:39;14.90;99.90
32728;DHT22;55292;51.844;19.246;2023-07-13T20:05:06;15.20;99.90
32728;DHT22;55292;51.844;19.246;2023-07-13T20:10:31;15.20;99.90
32728;DHT22;55292;51.844;19.246;2023-07-13T20:15:59;15.30;99.90
32728;DHT22;55292;51.844;19.246;2023-07-13T20:21:51;15.50;99.90
32728;DHT22;55292;51.844;19.246;2023-07-13T20:27:10;15.80;99.90
32728;DHT22;55292;51.844;19.246;2023-07-13T20:32:37;16.00;99.90
32728;DHT22;55292;51.844;19.246;2023-07-13T20:38:00;16.20;99.90
32728;DHT22;55292;51.844;19.246;2023-07-13T20:43:03;16.50;99.90
32728;DHT22;55292;51.844;19.246;2023-07-13T20:53:33;16.40;99.90
32728;DHT22;55292;51.844;19.246;2023-07-13T20:58:35;16.40;99.90
32728;DHT22;55292;51.844;19.246;2023-07-13T21:03:38;16.40;99.90
32728;DHT22;55292;51.844;19.246;2023-07-13T21:08:43;16.40;99.90
32728;DHT22;55292;51.844;19.246;2023-07-13T21:13:47;16.40;99.90
32728;DHT22;55292;51.844;19.246;2023-07-13T21:18:50;16.40;99.90
32728;DHT22;55292;51.844;19.246;2023-07-13T21:23:53;16.40;99.90
32728;DHT22;55292;51.844;19.246;2023-07-13T21:28:56;16.40;99.90
32728;DHT22;55292;51.844;19.246;2023-07-13T21:34:01;16.40;99.90
32728;DHT22;55292;51.844;19.246;2023-07-13T21:39:06;16.20;99.90
32728;DHT22;55292;51.844;19.246;2023-07-13T21:44:28;16.00;99.90
32728;DHT22;55292;51.844;19.246;2023-07-13T21:49:31;15.90;99.90
32728;DHT22;55292;51.844;19.246;2023-07-13T21:54:34;15.60;99.90
32728;DHT22;55292;51.844;19.246;2023-07-13T21:59:37;15.50;99.90
32728;DHT22;55292;51.844;19.246;2023-07-13T22:04:39;15.50;99.90
32728;DHT22;55292;51.844;19.246;2023-07-13T22:09:42;15.60;99.90
32728;DHT22;55292;51.844;19.246;2023-07-13T22:14:45;15.50;99.90
32728;DHT22;55292;51.844;19.246;2023-07-13T22:19:48;15.20;99.90
32728;DHT22;55292;51.844;19.246;2023-07-13T22:24:54;15.10;99.90
32728;DHT22;55292;51.844;19.246;2023-07-13T22:29:57;14.70;99.90
32728;DHT22;55292;51.844;19.246;2023-07-13T22:35:01;14.60;99.90
32728;DHT22;55292;51.844;19.246;2023-07-13T22:40:13;14.30;99.90
32728;DHT22;55292;51.844;19.246;2023-07-13T22:45:19;14.20;99.90
32728;DHT22;55292;51.844;19.246;2023-07-13T22:50:22;14.00;99.90
32728;DHT22;55292;51.844;19.246;2023-07-13T22:55:24;13.90;99.90
32728;DHT22;55292;51.844;19.246;2023-07-13T23:00:27;13.80;99.90
32728;DHT22;55292;51.844;19.246;2023-07-13T23:05:31;14.00;99.90
32728;DHT22;55292;51.844;19.246;2023-07-13T23:10:34;13.90;99.90
32728;DHT22;55292;51.844;19.246;2023-07-13T23:15:37;13.90;99.90
32728;DHT22;55292;51.844;19.246;2023-07-13T23:20:40;13.80;99.90
32728;DHT22;55292;51.844;19.246;2023-07-13T23:25:43;13.70;99.90
32728;DHT22;55292;51.844;19.246;2023-07-13T23:30:47;13.70;99.90
32728;DHT22;55292;51.844;19.246;2023-07-13T23:35:53;13.70;99.90
32728;DHT22;55292;51.844;19.246;2023-07-13T23:40:59;13.80;99.90
32728;DHT22;55292;51.844;19.246;2023-07-13T23:46:02;14.20;99.90
32728;DHT22;55292;51.844;19.246;2023-07-13T23:51:09;14.40;99.90
32728;DHT22;55292;51.844;19.246;2023-07-13T23:56:18;14.60;99.90
